Time,TemperatureF,DewpointF,PressureIn,WindDirection,WindDirectionDegrees,WindSpeedMPH,WindSpeedGustMPH,Humidity,HourlyPrecipIn,Conditions,Clouds,dailyrainin,SolarRadiationWatts/m^2,SoftwareType,DateUTC
2013-02-19 00:00:00,33.8,31.5,30.26,SSE,157,0.0,0.0,91,0.00,,,0.00,0.00,VWS V14.01,2013-02-19 05:00:00,
2013-02-19 00:01:00,33.8,31.5,30.26,SSE,157,0.0,0.0,91,0.00,,,0.00,0.00,VWS V14.01,2013-02-19 05:01:00,
2013-02-19 00:06:00,34.2,32.1,30.26,SSE,157,0.0,0.0,92,0.00,,,0.00,0.00,VWS V14.01,2013-02-19 05:06:00,
2013-02-19 00:11:00,34.2,31.9,30.27,SSE,157,0.0,0.0,91,0.00,,,0.00,0.00,VWS V14.01,2013-02-19 05:11:00,
2013-02-19 00:16:00,34.2,31.9,30.26,SSE,157,0.0,0.0,91,0.00,,,0.00,0.00,VWS V14.01,2013-02-19 05:16:00,
2013-02-19 00:21:00,34.5,32.5,30.26,SSE,157,0.0,0.0,92,0.00,,,0.00,0.00,VWS V14.01,2013-02-19 05:21:00,
2013-02-19 00:26:00,34.8,32.5,30.25,SSE,157,0.0,0.0,91,0.00,,,0.00,0.00,VWS V14.01,2013-02-19 05:26:00,
2013-02-19 00:31:00,34.8,32.5,30.25,SSE,157,0.0,0.0,91,0.00,,,0.00,0.00,VWS V14.01,2013-02-19 05:31:00,
2013-02-19 00:36:00,34.8,32.4,30.26,SSE,157,0.0,0.0,91,0.00,,,0.00,0.00,VWS V14.01,2013-02-19 05:36:00,
2013-02-19 00:41:00,34.7,32.3,30.26,SSE,157,0.0,0.0,91,0.00,,,0.00,0.00,VWS V14.01,2013-02-19 05:41:00,
2013-02-19 00:46:00,34.8,32.4,30.26,SSE,157,0.0,0.0,91,0.00,,,0.00,0.00,VWS V14.01,2013-02-19 05:46:00,
2013-02-19 00:51:00,35.0,32.9,30.26,SSE,157,0.0,0.0,92,0.00,,,0.00,0.00,VWS V14.01,2013-02-19 05:51:00,
2013-02-19 00:56:00,35.2,33.2,30.25,SSE,157,0.0,0.0,92,0.00,,,0.00,0.00,VWS V14.01,2013-02-19 05:56:00,
2013-02-19 01:01:00,35.5,33.5,30.25,SSE,157,0.0,0.0,92,0.00,,,0.00,0.00,VWS V14.01,2013-02-19 06:01:00,
2013-02-19 01:06:00,35.8,33.4,30.25,SSE,157,0.0,0.0,91,0.00,,,0.00,0.00,VWS V14.01,2013-02-19 06:06:00,
2013-02-19 01:11:00,36.0,33.6,30.25,SSE,157,0.0,0.0,91,0.00,,,0.00,0.00,VWS V14.01,2013-02-19 06:11:00,
2013-02-19 01:16:00,36.0,33.6,30.25,SSE,157,0.0,0.0,91,0.00,,,0.00,0.00,VWS V14.01,2013-02-19 06:16:00,
2013-02-19 01:21:00,36.2,33.9,30.25,SSE,157,0.0,0.0,91,0.00,,,0.00,0.00,VWS V14.01,2013-02-19 06:21:00,
2013-02-19 01:26:00,36.5,34.1,30.24,SSE,157,0.0,0.0,91,0.00,,,0.00,0.00,VWS V14.01,2013-02-19 06:26:00,
2013-02-19 01:31:00,36.7,34.3,30.24,SSE,157,0.0,0.0,91,0.00,,,0.00,0.00,VWS V14.01,2013-02-19 06:31:00,
2013-02-19 01:36:00,36.8,34.1,30.24,SSE,157,0.0,0.0,90,0.00,,,0.00,0.00,VWS V14.01,2013-02-19 06:36:00,
2013-02-19 01:41:00,37.0,34.7,30.24,SSE,157,0.0,0.0,91,0.00,,,0.00,0.00,VWS V14.01,2013-02-19 06:41:00,
2013-02-19 01:46:00,37.5,35.1,30.24,SSE,157,0.0,0.0,91,0.00,,,0.00,0.00,VWS V14.01,2013-02-19 06:46:00,
2013-02-19 01:51:00,37.8,35.2,30.24,SSE,157,0.0,0.0,90,0.00,,,0.00,0.00,VWS V14.01,2013-02-19 06:51:00,
2013-02-19 01:56:00,38.2,35.5,30.24,SSE,157,0.0,0.0,90,0.00,,,0.00,0.00,VWS V14.01,2013-02-19 06:56:00,
2013-02-19 02:01:00,38.2,35.3,30.23,SSE,157,0.0,0.0,89,0.00,,,0.00,0.00,VWS V14.01,2013-02-19 07:01:00,
2013-02-19 02:06:00,38.3,35.7,30.23,SSE,157,0.0,0.0,90,0.00,,,0.00,0.00,VWS V14.01,2013-02-19 07:06:00,
2013-02-19 02:11:00,38.5,35.8,30.23,SSE,157,0.0,0.0,90,0.00,,,0.00,0.00,VWS V14.01,2013-02-19 07:11:00,
2013-02-19 02:16:00,38.5,35.5,30.22,SSE,157,0.0,0.0,89,0.00,,,0.00,0.00,VWS V14.01,2013-02-19 07:16:00,
2013-02-19 02:21:00,38.5,35.5,30.22,SSE,157,0.0,0.0,89,0.00,,,0.00,0.00,VWS V14.01,2013-02-19 07:21:00,
2013-02-19 02:26:00,38.5,35.5,30.21,SSE,157,0.0,0.0,89,0.00,,,0.00,0.00,VWS V14.01,2013-02-19 07:26:00,
2013-02-19 02:31:00,38.5,35.5,30.21,SSE,157,0.0,0.0,89,0.00,,,0.00,0.00,VWS V14.01,2013-02-19 07:31:00,
2013-02-19 02:36:00,38.3,35.4,30.20,SSE,157,0.0,0.0,89,0.00,,,0.00,0.00,VWS V14.01,2013-02-19 07:36:00,
2013-02-19 02:41:00,38.2,35.2,30.20,SSE,157,0.0,0.0,89,0.00,,,0.00,0.00,VWS V14.01,2013-02-19 07:41:00,
2013-02-19 02:46:00,38.0,35.0,30.20,SSE,157,0.0,0.0,89,0.00,,,0.00,0.00,VWS V14.01,2013-02-19 07:46:00,
2013-02-19 02:51:00,37.8,34.8,30.20,SSE,157,0.0,0.0,89,0.00,,,0.00,0.00,VWS V14.01,2013-02-19 07:51:00,
2013-02-19 02:56:00,37.5,34.8,30.20,SSE,157,0.0,0.0,90,0.00,,,0.00,0.00,VWS V14.01,2013-02-19 07:56:00,
2013-02-19 03:01:00,37.3,34.7,30.20,SSE,157,0.0,0.0,90,0.00,,,0.00,0.00,VWS V14.01,2013-02-19 08:01:00,
2013-02-19 03:06:00,37.3,35.0,30.19,SSE,157,0.0,0.0,91,0.00,,,0.00,0.00,VWS V14.01,2013-02-19 08:06:00,
2013-02-19 03:11:00,37.2,34.9,30.19,SSE,157,0.0,0.0,91,0.00,,,0.00,0.00,VWS V14.01,2013-02-19 08:11:00,
2013-02-19 03:16:00,37.2,34.8,30.18,SSE,157,0.0,0.0,91,0.00,,,0.00,0.00,VWS V14.01,2013-02-19 08:16:00,
2013-02-19 03:21:00,37.0,34.7,30.18,SSE,157,0.0,0.0,91,0.00,,,0.00,0.00,VWS V14.01,2013-02-19 08:21:00,
2013-02-19 03:26:00,37.0,34.6,30.18,SSE,157,0.0,0.0,91,0.00,,,0.00,0.00,VWS V14.01,2013-02-19 08:26:00,
2013-02-19 03:31:00,37.0,34.6,30.18,SSE,157,0.0,0.0,91,0.00,,,0.00,0.00,VWS V14.01,2013-02-19 08:31:00,
2013-02-19 03:36:00,37.0,34.6,30.17,SSE,157,0.0,0.0,91,0.00,,,0.00,0.00,VWS V14.01,2013-02-19 08:36:00,
2013-02-19 03:41:00,37.0,35.0,30.17,SSE,157,0.0,0.0,92,0.00,,,0.00,0.00,VWS V14.01,2013-02-19 08:41:00,
2013-02-19 03:46:00,37.2,35.0,30.17,SSE,157,0.0,0.0,92,0.00,,,0.00,0.00,VWS V14.01,2013-02-19 08:46:00,
2013-02-19 03:51:00,37.5,35.3,30.17,SSE,157,0.0,0.0,92,0.00,,,0.00,0.00,VWS V14.01,2013-02-19 08:51:00,
2013-02-19 03:55:00,37.8,35.6,30.16,SSE,157,0.0,0.0,92,0.00,,,0.00,0.00,VWS V14.01,2013-02-19 08:55:00,
2013-02-19 04:00:00,37.8,35.7,30.16,SSE,157,0.0,0.0,92,0.00,,,0.00,0.00,VWS V14.01,2013-02-19 09:00:00,
2013-02-19 04:05:00,37.8,35.7,30.16,SSE,157,0.0,0.0,92,0.00,,,0.00,0.00,VWS V14.01,2013-02-19 09:05:00,
2013-02-19 04:10:00,37.8,35.6,30.16,SSE,157,0.0,0.0,92,0.00,,,0.00,0.00,VWS V14.01,2013-02-19 09:10:00,
2013-02-19 04:15:00,37.7,35.5,30.15,SSE,157,0.0,0.0,92,0.00,,,0.00,0.00,VWS V14.01,2013-02-19 09:15:00,
2013-02-19 04:21:00,37.7,35.5,30.15,SSE,157,0.0,0.0,92,0.00,,,0.00,0.00,VWS V14.01,2013-02-19 09:21:00,
2013-02-19 04:26:00,37.7,35.5,30.15,SSE,157,0.0,0.0,92,0.00,,,0.00,0.00,VWS V14.01,2013-02-19 09:26:00,
2013-02-19 04:30:00,37.7,35.5,30.15,SSE,157,0.0,0.0,92,0.00,,,0.00,0.00,VWS V14.01,2013-02-19 09:30:00,
2013-02-19 04:35:00,37.5,35.7,30.15,SSE,157,0.0,0.0,93,0.00,,,0.00,0.00,VWS V14.01,2013-02-19 09:35:00,
2013-02-19 04:40:00,37.5,35.7,30.14,SSE,157,0.0,0.0,93,0.00,,,0.00,0.00,VWS V14.01,2013-02-19 09:40:00,
2013-02-19 04:45:00,37.5,35.3,30.14,SSE,157,0.0,0.0,92,0.00,,,0.00,0.00,VWS V14.01,2013-02-19 09:45:00,
2013-02-19 04:50:00,37.2,35.1,30.14,SSE,157,0.0,0.0,92,0.00,,,0.00,0.00,VWS V14.01,2013-02-19 09:50:00,
2013-02-19 04:56:00,37.2,35.3,30.14,SSE,157,0.0,0.0,93,0.00,,,0.00,0.00,VWS V14.01,2013-02-19 09:56:00,
2013-02-19 05:01:00,37.0,35.2,30.14,SSE,157,0.0,0.0,93,0.00,,,0.00,0.00,VWS V14.01,2013-02-19 10:01:00,
2013-02-19 05:06:00,37.0,35.1,30.14,SSE,157,0.0,0.0,93,0.00,,,0.00,0.00,VWS V14.01,2013-02-19 10:06:00,
2013-02-19 05:10:00,37.0,35.1,30.14,SSE,157,0.0,0.0,93,0.00,,,0.00,0.00,VWS V14.01,2013-02-19 10:10:00,
2013-02-19 05:16:00,37.0,35.1,30.14,SSE,157,0.0,0.0,93,0.00,,,0.00,0.00,VWS V14.01,2013-02-19 10:16:00,
2013-02-19 05:21:00,36.8,34.9,30.14,SSE,157,0.0,0.0,93,0.00,,,0.00,0.00,VWS V14.01,2013-02-19 10:21:00,
2013-02-19 05:26:00,36.7,34.8,30.14,SSE,157,0.0,0.0,93,0.00,,,0.00,0.00,VWS V14.01,2013-02-19 10:26:00,
2013-02-19 05:31:00,36.7,35.1,30.14,SSE,157,0.0,0.0,94,0.00,,,0.00,0.00,VWS V14.01,2013-02-19 10:31:00,
2013-02-19 05:36:00,36.8,35.2,30.14,SSE,157,0.0,0.0,94,0.00,,,0.00,0.00,VWS V14.01,2013-02-19 10:36:00,
2013-02-19 05:41:00,36.8,35.2,30.13,SSE,157,0.0,0.0,94,0.00,,,0.00,0.00,VWS V14.01,2013-02-19 10:41:00,
2013-02-19 05:46:00,36.8,35.3,30.13,SSE,157,0.0,0.0,94,0.00,,,0.00,0.00,VWS V14.01,2013-02-19 10:46:00,
2013-02-19 05:51:00,36.8,35.3,30.12,SSE,157,0.0,0.0,94,0.00,,,0.00,0.00,VWS V14.01,2013-02-19 10:51:00,
2013-02-19 05:56:00,37.0,35.4,30.12,SSE,157,0.0,0.0,94,0.00,,,0.00,0.00,VWS V14.01,2013-02-19 10:56:00,
2013-02-19 06:01:00,36.8,35.3,30.12,SSE,157,0.0,0.0,94,0.00,,,0.00,0.00,VWS V14.01,2013-02-19 11:01:00,
2013-02-19 06:06:00,36.8,35.3,30.13,SSE,157,0.0,0.0,94,0.00,,,0.00,0.00,VWS V14.01,2013-02-19 11:06:00,
2013-02-19 06:11:00,36.8,35.3,30.12,SSE,157,0.0,0.0,94,0.00,,,0.00,0.00,VWS V14.01,2013-02-19 11:11:00,
2013-02-19 06:15:00,37.0,35.4,30.12,SSE,157,0.0,0.0,94,0.00,,,0.00,0.00,VWS V14.01,2013-02-19 11:15:00,
2013-02-19 06:21:00,37.0,35.5,30.12,SSE,157,0.0,0.0,94,0.00,,,0.00,0.00,VWS V14.01,2013-02-19 11:21:00,
2013-02-19 06:25:00,37.2,35.6,30.12,SSE,157,0.0,0.0,94,0.00,,,0.00,0.00,VWS V14.01,2013-02-19 11:25:00,
2013-02-19 06:30:00,37.0,35.5,30.12,SSE,157,0.0,0.0,94,0.00,,,0.00,0.00,VWS V14.01,2013-02-19 11:30:00,
2013-02-19 06:35:00,37.0,35.5,30.12,SSE,157,0.0,0.0,94,0.00,,,0.00,0.00,VWS V14.01,2013-02-19 11:35:00,
2013-02-19 06:41:00,37.2,35.8,30.12,SSE,157,0.0,0.0,95,0.00,,,0.00,0.00,VWS V14.01,2013-02-19 11:41:00,
2013-02-19 06:46:00,37.5,36.2,30.12,SSE,157,0.0,0.0,95,0.00,,,0.00,0.00,VWS V14.01,2013-02-19 11:46:00,
2013-02-19 06:51:00,37.5,36.2,30.11,SSE,157,0.0,0.0,95,0.00,,,0.00,0.00,VWS V14.01,2013-02-19 11:51:00,
2013-02-19 06:56:00,37.8,36.5,30.11,SSE,157,0.0,0.0,95,0.00,,,0.00,0.00,VWS V14.01,2013-02-19 11:56:00,
2013-02-19 07:01:00,37.8,36.5,30.11,SSE,157,0.0,0.0,95,0.00,,,0.00,7.00,VWS V14.01,2013-02-19 12:01:00,
2013-02-19 07:06:00,37.8,36.5,30.11,SSE,157,0.0,0.0,95,0.00,,,0.00,7.00,VWS V14.01,2013-02-19 12:06:00,
2013-02-19 07:11:00,38.0,36.8,30.11,SSE,157,0.0,0.0,95,0.00,,,0.00,11.00,VWS V14.01,2013-02-19 12:11:00,
2013-02-19 07:15:00,38.2,37.0,30.11,SSE,157,0.0,0.0,95,0.00,,,0.00,19.00,VWS V14.01,2013-02-19 12:15:00,
2013-02-19 07:20:00,38.5,37.2,30.11,SSE,157,0.0,0.0,95,0.00,,,0.00,19.00,VWS V14.01,2013-02-19 12:20:00,
2013-02-19 07:25:00,39.0,37.6,30.11,SSE,157,0.0,0.0,95,0.00,,,0.00,19.00,VWS V14.01,2013-02-19 12:25:00,
2013-02-19 07:30:00,39.2,38.2,30.12,SSE,157,0.0,0.0,96,0.00,,,0.00,26.00,VWS V14.01,2013-02-19 12:30:00,
2013-02-19 07:35:00,39.8,38.7,30.12,SSE,157,0.0,0.0,96,0.00,,,0.00,32.00,VWS V14.01,2013-02-19 12:35:00,
2013-02-19 07:40:00,40.2,39.2,30.13,SSE,157,0.0,0.0,96,0.00,,,0.00,35.00,VWS V14.01,2013-02-19 12:40:00,
2013-02-19 07:45:00,40.8,39.7,30.13,SSE,157,0.0,0.0,96,0.00,,,0.00,54.00,VWS V14.01,2013-02-19 12:45:00,
2013-02-19 07:50:00,41.5,40.5,30.13,SSE,157,0.0,0.0,96,0.00,,,0.00,86.00,VWS V14.01,2013-02-19 12:50:00,
2013-02-19 07:55:00,43.0,41.9,30.13,SSE,157,0.0,0.0,96,0.00,,,0.00,74.00,VWS V14.01,2013-02-19 12:55:00,
2013-02-19 08:00:00,44.2,43.2,30.13,SSE,157,0.0,0.0,96,0.00,,,0.00,63.00,VWS V14.01,2013-02-19 13:00:00,
2013-02-19 08:05:00,45.0,43.7,30.13,SSE,157,0.0,0.0,95,0.00,,,0.00,62.00,VWS V14.01,2013-02-19 13:05:00,
2013-02-19 08:10:00,45.5,43.9,30.13,SSE,157,0.0,0.0,94,0.00,,,0.00,62.00,VWS V14.01,2013-02-19 13:10:00,
2013-02-19 08:15:00,46.0,44.4,30.13,SSE,157,0.0,0.0,94,0.00,,,0.00,39.00,VWS V14.01,2013-02-19 13:15:00,
2013-02-19 08:20:00,46.5,44.5,30.13,SSE,157,0.0,0.0,93,0.00,,,0.00,37.00,VWS V14.01,2013-02-19 13:20:00,
2013-02-19 08:25:00,46.8,44.9,30.14,SSE,157,0.0,0.0,93,0.00,,,0.00,69.00,VWS V14.01,2013-02-19 13:25:00,
2013-02-19 08:30:00,47.5,45.5,30.14,SSE,157,0.0,0.0,93,0.00,,,0.00,102.00,VWS V14.01,2013-02-19 13:30:00,
2013-02-19 08:35:00,48.8,46.8,30.14,SSE,157,0.0,0.0,93,0.00,,,0.00,148.00,VWS V14.01,2013-02-19 13:35:00,
2013-02-19 08:40:00,50.2,47.9,30.14,SSE,156,1.1,1.1,92,0.00,,,0.00,158.00,VWS V14.01,2013-02-19 13:40:00,
2013-02-19 08:45:00,51.7,48.8,30.13,SSW,208,0.0,2.2,90,0.00,,,0.00,141.00,VWS V14.01,2013-02-19 13:45:00,
2013-02-19 08:50:00,53.2,50.0,30.13,South,187,4.4,4.4,89,0.00,,,0.00,76.00,VWS V14.01,2013-02-19 13:50:00,
2013-02-19 08:55:00,55.0,51.2,30.13,SW,214,0.0,3.3,87,0.00,,,0.00,72.00,VWS V14.01,2013-02-19 13:55:00,
2013-02-19 09:00:00,56.0,51.5,30.14,SSW,198,2.2,2.2,85,0.00,,,0.00,83.00,VWS V14.01,2013-02-19 14:00:00,
2013-02-19 09:05:00,56.5,51.4,30.13,SSW,196,2.2,3.3,83,0.00,,,0.00,90.00,VWS V14.01,2013-02-19 14:05:00,
2013-02-19 09:10:00,57.0,51.6,30.14,SSW,202,2.2,4.4,82,0.00,,,0.00,98.00,VWS V14.01,2013-02-19 14:10:00,
2013-02-19 09:15:00,57.5,51.7,30.14,SE,143,4.4,4.4,81,0.00,,,0.00,98.00,VWS V14.01,2013-02-19 14:15:00,
2013-02-19 09:20:00,57.8,51.6,30.13,SSW,206,3.3,5.5,80,0.00,,,0.00,128.00,VWS V14.01,2013-02-19 14:20:00,
2013-02-19 09:25:00,58.3,51.9,30.13,SSW,208,2.2,2.2,79,0.00,,,0.00,137.00,VWS V14.01,2013-02-19 14:25:00,
2013-02-19 09:30:00,59.0,52.1,30.13,South,174,3.3,4.4,78,0.00,,,0.00,134.00,VWS V14.01,2013-02-19 14:30:00,
2013-02-19 09:35:00,59.5,51.9,30.12,SW,218,3.3,6.6,76,0.00,,,0.00,160.00,VWS V14.01,2013-02-19 14:35:00,
2013-02-19 09:40:00,60.0,52.0,30.12,SSW,204,3.3,9.9,75,0.00,,,0.00,169.00,VWS V14.01,2013-02-19 14:40:00,
2013-02-19 09:45:00,60.3,52.0,30.12,WSW,239,2.2,4.4,74,0.00,,,0.00,158.00,VWS V14.01,2013-02-19 14:45:00,
2013-02-19 09:50:00,60.7,52.0,30.12,SSW,202,5.5,5.5,73,0.00,,,0.00,163.00,VWS V14.01,2013-02-19 14:50:00,
2013-02-19 09:55:00,61.0,51.9,30.12,SSW,193,3.3,5.5,72,0.00,,,0.00,188.00,VWS V14.01,2013-02-19 14:55:00,
2013-02-19 10:00:00,61.2,51.8,30.11,South,169,2.2,5.5,71,0.00,,,0.00,165.00,VWS V14.01,2013-02-19 15:00:00,
2013-02-19 10:05:00,61.5,52.0,30.11,South,182,3.3,4.4,71,0.00,,,0.00,190.00,VWS V14.01,2013-02-19 15:05:00,
2013-02-19 10:10:00,61.8,51.9,30.10,SSW,197,4.4,5.5,70,0.00,,,0.00,172.00,VWS V14.01,2013-02-19 15:10:00,
2013-02-19 10:15:00,62.0,51.8,30.10,SSW,207,3.3,6.6,69,0.00,,,0.00,120.00,VWS V14.01,2013-02-19 15:15:00,
2013-02-19 10:20:00,62.2,51.9,30.10,SSW,200,9.9,13.2,69,0.00,,,0.00,116.00,VWS V14.01,2013-02-19 15:20:00,
2013-02-19 10:25:00,62.2,51.9,30.09,South,182,5.5,6.6,69,0.00,,,0.00,139.00,VWS V14.01,2013-02-19 15:25:00,
2013-02-19 10:30:00,62.5,51.8,30.10,SSW,210,5.5,12.1,68,0.00,,,0.00,163.00,VWS V14.01,2013-02-19 15:30:00,
2013-02-19 10:35:00,62.8,51.7,30.09,SSW,205,2.2,6.6,67,0.00,,,0.00,199.00,VWS V14.01,2013-02-19 15:35:00,
2013-02-19 10:40:00,63.2,51.7,30.09,South,185,5.5,8.8,66,0.00,,,0.00,244.00,VWS V14.01,2013-02-19 15:40:00,
2013-02-19 10:45:00,63.8,51.9,30.09,SW,227,2.2,4.4,65,0.00,,,0.00,295.00,VWS V14.01,2013-02-19 15:45:00,
2013-02-19 10:50:00,64.7,52.2,30.09,SSE,156,7.7,7.7,64,0.00,,,0.00,294.00,VWS V14.01,2013-02-19 15:50:00,
2013-02-19 10:55:00,64.9,52.1,30.08,South,187,3.3,6.6,63,0.00,,,0.00,186.00,VWS V14.01,2013-02-19 15:55:00,
2013-02-19 11:00:00,64.9,51.6,30.08,SSW,211,3.3,4.4,62,0.00,,,0.00,179.00,VWS V14.01,2013-02-19 16:00:00,
2013-02-19 11:05:00,65.1,51.3,30.09,SSW,208,6.6,7.7,61,0.00,,,0.00,142.00,VWS V14.01,2013-02-19 16:05:00,
2013-02-19 11:10:00,64.9,51.2,30.09,South,191,5.5,5.5,61,0.00,,,0.00,139.00,VWS V14.01,2013-02-19 16:10:00,
2013-02-19 11:15:00,64.9,51.2,30.09,SSW,203,4.4,7.7,61,0.00,,,0.00,123.00,VWS V14.01,2013-02-19 16:15:00,
2013-02-19 11:20:00,64.9,51.2,30.09,South,187,4.4,7.7,61,0.00,,,0.00,100.00,VWS V14.01,2013-02-19 16:20:00,
2013-02-19 11:25:00,64.9,51.6,30.09,SSW,206,5.5,6.6,62,0.00,,,0.00,91.00,VWS V14.01,2013-02-19 16:25:00,
2013-02-19 11:30:00,64.8,51.5,30.09,WSW,237,6.6,6.6,62,0.00,,,0.00,77.00,VWS V14.01,2013-02-19 16:30:00,
2013-02-19 11:35:00,64.8,51.1,30.09,SW,216,7.7,7.7,61,0.00,,,0.00,70.00,VWS V14.01,2013-02-19 16:35:00,
2013-02-19 11:40:00,64.8,51.1,30.09,SW,229,1.1,3.3,61,0.00,,,0.00,58.00,VWS V14.01,2013-02-19 16:40:00,
2013-02-19 11:45:00,64.8,51.1,30.08,WSW,243,4.4,9.9,61,0.00,,,0.00,56.00,VWS V14.01,2013-02-19 16:45:00,
2013-02-19 11:50:00,64.1,52.1,30.08,South,191,6.6,9.9,65,0.00,,,0.00,49.00,VWS V14.01,2013-02-19 16:50:00,
2013-02-19 11:55:00,63.0,51.9,30.08,SE,146,5.5,14.3,67,0.01,,,0.01,39.00,VWS V14.01,2013-02-19 16:55:00,
2013-02-19 12:00:00,62.0,52.5,30.07,West,279,4.4,7.7,71,0.02,,,0.02,39.00,VWS V14.01,2013-02-19 17:00:00,
2013-02-19 12:05:00,61.0,53.1,30.07,SSW,208,3.3,7.7,75,0.03,,,0.03,44.00,VWS V14.01,2013-02-19 17:05:00,
2013-02-19 12:10:00,60.2,53.4,30.07,SSW,193,7.7,7.7,78,0.04,,,0.04,42.00,VWS V14.01,2013-02-19 17:10:00,
2013-02-19 12:15:00,59.8,53.6,30.06,SSE,164,4.4,4.4,80,0.04,,,0.04,51.00,VWS V14.01,2013-02-19 17:15:00,
2013-02-19 12:20:00,59.2,53.8,30.06,South,187,4.4,7.7,82,0.05,,,0.05,54.00,VWS V14.01,2013-02-19 17:20:00,
2013-02-19 12:25:00,59.2,54.1,30.06,SSW,205,3.3,4.4,83,0.06,,,0.06,84.00,VWS V14.01,2013-02-19 17:25:00,
2013-02-19 12:30:00,59.0,54.9,30.06,SW,220,3.3,4.4,86,0.06,,,0.06,130.00,VWS V14.01,2013-02-19 17:30:00,
2013-02-19 12:35:00,59.0,54.9,30.06,South,189,3.3,6.6,86,0.06,,,0.06,83.00,VWS V14.01,2013-02-19 17:35:00,
2013-02-19 12:40:00,59.2,55.1,30.06,South,187,5.5,7.7,86,0.06,,,0.06,97.00,VWS V14.01,2013-02-19 17:40:00,
2013-02-19 12:45:00,59.5,54.9,30.05,SW,235,5.5,8.8,85,0.06,,,0.06,72.00,VWS V14.01,2013-02-19 17:45:00,
2013-02-19 12:50:00,59.5,55.0,30.05,SSW,193,3.3,4.4,85,0.06,,,0.06,58.00,VWS V14.01,2013-02-19 17:50:00,
2013-02-19 12:55:00,59.5,55.0,30.04,SSW,193,4.4,4.4,85,0.05,,,0.06,42.00,VWS V14.01,2013-02-19 17:55:00,
2013-02-19 13:00:00,59.5,55.0,30.04,SW,217,11.0,11.0,85,0.05,,,0.07,46.00,VWS V14.01,2013-02-19 18:00:00,
2013-02-19 13:05:00,59.2,55.1,30.05,SW,220,7.7,8.8,86,0.06,,,0.08,39.00,VWS V14.01,2013-02-19 18:05:00,
2013-02-19 13:10:00,59.0,55.2,30.04,SSE,151,4.4,7.7,87,0.05,,,0.08,54.00,VWS V14.01,2013-02-19 18:10:00,
2013-02-19 13:15:00,58.8,55.2,30.03,South,171,4.4,7.7,88,0.05,,,0.09,42.00,VWS V14.01,2013-02-19 18:15:00,
2013-02-19 13:20:00,58.5,55.3,30.03,South,175,9.9,9.9,89,0.05,,,0.10,49.00,VWS V14.01,2013-02-19 18:20:00,
2013-02-19 13:25:00,58.5,55.2,30.03,South,190,3.3,4.4,89,0.05,,,0.10,58.00,VWS V14.01,2013-02-19 18:25:00,
2013-02-19 13:30:00,58.3,55.4,30.02,SSW,198,3.3,5.5,90,0.04,,,0.10,81.00,VWS V14.01,2013-02-19 18:30:00,
2013-02-19 13:35:00,58.3,55.4,30.02,South,190,7.7,7.7,90,0.05,,,0.11,63.00,VWS V14.01,2013-02-19 18:35:00,
2013-02-19 13:40:00,58.5,55.6,30.02,South,187,4.4,8.8,90,0.05,,,0.11,53.00,VWS V14.01,2013-02-19 18:40:00,
2013-02-19 13:45:00,58.5,55.6,30.01,SSE,162,7.7,14.3,90,0.05,,,0.11,47.00,VWS V14.01,2013-02-19 18:45:00,
2013-02-19 13:50:00,58.5,55.5,30.01,SSW,199,12.1,12.1,90,0.06,,,0.12,49.00,VWS V14.01,2013-02-19 18:50:00,
2013-02-19 13:55:00,58.5,55.8,30.01,South,182,5.5,7.7,91,0.06,,,0.12,70.00,VWS V14.01,2013-02-19 18:55:00,
2013-02-19 14:00:00,58.3,55.7,30.00,SSW,192,9.9,9.9,91,0.06,,,0.13,62.00,VWS V14.01,2013-02-19 19:00:00,
2013-02-19 14:05:00,58.2,55.9,30.00,SSW,203,3.3,3.3,92,0.05,,,0.13,76.00,VWS V14.01,2013-02-19 19:05:00,
2013-02-19 14:10:00,58.2,55.9,30.00,WSW,237,6.6,7.7,92,0.05,,,0.13,40.00,VWS V14.01,2013-02-19 19:10:00,
2013-02-19 14:15:00,58.2,55.8,30.00,SSW,201,2.2,3.3,92,0.05,,,0.14,56.00,VWS V14.01,2013-02-19 19:15:00,
2013-02-19 14:20:00,58.0,55.7,30.00,SSW,199,4.4,9.9,92,0.05,,,0.15,102.00,VWS V14.01,2013-02-19 19:20:00,
2013-02-19 14:25:00,58.2,55.8,30.00,South,176,5.5,5.5,92,0.05,,,0.15,53.00,VWS V14.01,2013-02-19 19:25:00,
2013-02-19 14:30:00,58.0,56.0,29.99,South,171,4.4,5.5,93,0.05,,,0.15,69.00,VWS V14.01,2013-02-19 19:30:00,
2013-02-19 14:35:00,58.0,56.0,30.00,SW,224,4.4,8.8,93,0.06,,,0.17,70.00,VWS V14.01,2013-02-19 19:35:00,
2013-02-19 14:40:00,58.0,55.9,30.00,SW,216,2.2,5.5,93,0.06,,,0.17,47.00,VWS V14.01,2013-02-19 19:40:00,
2013-02-19 14:45:00,58.0,55.9,30.00,SW,216,3.3,4.4,93,0.07,,,0.18,35.00,VWS V14.01,2013-02-19 19:45:00,
2013-02-19 14:50:00,57.8,56.0,30.00,SSW,193,7.7,7.7,94,0.07,,,0.19,42.00,VWS V14.01,2013-02-19 19:50:00,
2013-02-19 14:55:00,57.8,56.0,30.00,SW,224,3.3,7.7,94,0.08,,,0.20,69.00,VWS V14.01,2013-02-19 19:55:00,
2013-02-19 15:00:00,57.7,55.9,29.99,SSE,167,3.3,6.6,94,0.08,,,0.21,76.00,VWS V14.01,2013-02-19 20:00:00,
2013-02-19 15:05:00,57.7,55.9,29.99,WSW,241,7.7,9.9,94,0.09,,,0.22,74.00,VWS V14.01,2013-02-19 20:05:00,
2013-02-19 15:10:00,57.7,56.2,29.99,SSE,163,5.5,5.5,95,0.09,,,0.22,54.00,VWS V14.01,2013-02-19 20:10:00,
2013-02-19 15:15:00,57.5,56.1,29.98,South,191,5.5,8.8,95,0.08,,,0.22,67.00,VWS V14.01,2013-02-19 20:15:00,
2013-02-19 15:20:00,57.7,56.2,29.98,SSW,205,5.5,6.6,95,0.07,,,0.22,40.00,VWS V14.01,2013-02-19 20:20:00,
2013-02-19 15:25:00,57.7,56.2,29.98,SW,216,4.4,6.6,95,0.07,,,0.22,54.00,VWS V14.01,2013-02-19 20:25:00,
2013-02-19 15:30:00,57.8,56.3,29.98,SSW,201,4.4,6.6,95,0.07,,,0.22,70.00,VWS V14.01,2013-02-19 20:30:00,
2013-02-19 15:35:00,57.8,56.4,29.98,SE,144,6.6,7.7,95,0.05,,,0.22,49.00,VWS V14.01,2013-02-19 20:35:00,
2013-02-19 15:40:00,57.8,56.4,29.98,South,172,4.4,5.5,95,0.05,,,0.22,35.00,VWS V14.01,2013-02-19 20:40:00,
2013-02-19 15:45:00,57.8,56.4,29.98,South,176,4.4,6.6,95,0.04,,,0.22,56.00,VWS V14.01,2013-02-19 20:45:00,
2013-02-19 15:50:00,57.8,56.4,29.98,SSW,203,6.6,8.8,95,0.04,,,0.22,35.00,VWS V14.01,2013-02-19 20:50:00,
2013-02-19 15:55:00,58.0,56.5,29.98,SE,128,4.4,4.4,95,0.02,,,0.22,33.00,VWS V14.01,2013-02-19 20:55:00,
2013-02-19 16:00:00,58.0,56.5,29.98,SW,228,0.0,2.2,95,0.01,,,0.22,28.00,VWS V14.01,2013-02-19 21:00:00,
2013-02-19 16:05:00,57.8,56.4,29.98,South,185,7.7,7.7,95,0.00,,,0.22,25.00,VWS V14.01,2013-02-19 21:05:00,
2013-02-19 16:10:00,57.8,56.4,29.98,South,187,4.4,5.5,95,0.00,,,0.22,26.00,VWS V14.01,2013-02-19 21:10:00,
2013-02-19 16:15:00,57.8,56.4,29.98,South,186,3.3,5.5,95,0.00,,,0.22,28.00,VWS V14.01,2013-02-19 21:15:00,
2013-02-19 16:20:00,57.8,56.4,29.98,South,173,3.3,3.3,95,0.00,,,0.22,25.00,VWS V14.01,2013-02-19 21:20:00,
2013-02-19 16:25:00,57.8,56.4,29.98,SSW,211,2.2,2.2,95,0.00,,,0.22,19.00,VWS V14.01,2013-02-19 21:25:00,
2013-02-19 16:30:00,57.8,56.4,29.98,SSW,201,1.1,1.1,95,0.00,,,0.22,26.00,VWS V14.01,2013-02-19 21:30:00,
2013-02-19 16:35:00,57.8,56.6,29.98,SW,231,3.3,5.5,96,0.00,,,0.22,30.00,VWS V14.01,2013-02-19 21:35:00,
2013-02-19 16:40:00,57.8,56.6,29.98,SW,223,0.0,1.1,96,0.00,,,0.22,25.00,VWS V14.01,2013-02-19 21:40:00,
2013-02-19 16:45:00,57.8,56.6,29.98,WSW,244,0.0,1.1,96,0.00,,,0.22,12.00,VWS V14.01,2013-02-19 21:45:00,
2013-02-19 16:50:00,57.7,56.5,29.98,SW,221,3.3,4.4,96,0.00,,,0.22,30.00,VWS V14.01,2013-02-19 21:50:00,
2013-02-19 16:55:00,57.7,56.5,29.98,SSW,202,0.0,1.1,96,0.00,,,0.22,25.00,VWS V14.01,2013-02-19 21:55:00,
2013-02-19 17:00:00,57.7,56.5,29.98,WSW,247,2.2,3.3,96,0.00,,,0.22,25.00,VWS V14.01,2013-02-19 22:00:00,
2013-02-19 17:05:00,57.7,56.5,29.98,SW,228,1.1,1.1,96,0.00,,,0.22,12.00,VWS V14.01,2013-02-19 22:05:00,
2013-02-19 17:10:00,57.7,56.5,29.99,SSW,206,3.3,3.3,96,0.00,,,0.22,28.00,VWS V14.01,2013-02-19 22:10:00,
2013-02-19 17:15:00,57.7,56.5,29.99,SW,227,2.2,3.3,96,0.00,,,0.22,35.00,VWS V14.01,2013-02-19 22:15:00,
2013-02-19 17:20:00,57.7,56.5,29.99,SW,215,2.2,2.2,96,0.01,,,0.23,14.00,VWS V14.01,2013-02-19 22:20:00,
2013-02-19 17:25:00,57.7,56.5,29.99,SW,215,4.4,5.5,96,0.01,,,0.23,19.00,VWS V14.01,2013-02-19 22:25:00,
2013-02-19 17:30:00,57.5,56.4,29.99,SW,231,1.1,4.4,96,0.01,,,0.23,16.00,VWS V14.01,2013-02-19 22:30:00,
2013-02-19 17:35:00,57.5,56.4,29.98,SSE,147,0.0,3.3,96,0.01,,,0.23,12.00,VWS V14.01,2013-02-19 22:35:00,
2013-02-19 17:40:00,57.5,56.3,29.98,SSW,195,3.3,3.3,96,0.01,,,0.23,26.00,VWS V14.01,2013-02-19 22:40:00,
2013-02-19 17:45:00,57.5,56.3,29.98,SSW,200,2.2,6.6,96,0.01,,,0.23,18.00,VWS V14.01,2013-02-19 22:45:00,
2013-02-19 17:50:00,57.5,56.3,29.99,SW,222,2.2,6.6,96,0.01,,,0.23,9.00,VWS V14.01,2013-02-19 22:50:00,
2013-02-19 17:55:00,57.5,56.3,29.99,SSW,211,2.2,3.3,96,0.01,,,0.23,5.00,VWS V14.01,2013-02-19 22:55:00,
2013-02-19 18:00:00,57.5,56.3,29.98,SW,229,0.0,1.1,96,0.01,,,0.23,0.00,VWS V14.01,2013-02-19 23:00:00,
2013-02-19 18:05:00,57.3,56.2,29.98,WSW,241,0.0,1.1,96,0.01,,,0.23,0.00,VWS V14.01,2013-02-19 23:05:00,
2013-02-19 18:10:00,57.3,56.2,29.99,WSW,237,1.1,3.3,96,0.01,,,0.23,0.00,VWS V14.01,2013-02-19 23:10:00,
2013-02-19 18:15:00,57.2,56.1,29.99,SSW,211,1.1,4.4,96,0.01,,,0.23,0.00,VWS V14.01,2013-02-19 23:15:00,
2013-02-19 18:20:00,57.2,56.1,29.99,SW,228,2.2,4.4,96,0.00,,,0.23,0.00,VWS V14.01,2013-02-19 23:20:00,
2013-02-19 18:25:00,57.2,56.1,30.00,SSW,210,7.7,7.7,96,0.00,,,0.23,0.00,VWS V14.01,2013-02-19 23:25:00,
2013-02-19 18:30:00,57.2,56.1,30.00,WSW,254,1.1,1.1,96,0.00,,,0.23,0.00,VWS V14.01,2013-02-19 23:30:00,
2013-02-19 18:35:00,57.2,56.3,30.00,WSW,256,0.0,3.3,97,0.00,,,0.23,0.00,VWS V14.01,2013-02-19 23:35:00,
2013-02-19 18:40:00,57.0,55.9,30.00,SW,225,1.1,2.2,96,0.00,,,0.23,0.00,VWS V14.01,2013-02-19 23:40:00,
2013-02-19 18:45:00,57.0,55.9,30.00,SW,227,5.5,5.5,96,0.00,,,0.23,0.00,VWS V14.01,2013-02-19 23:45:00,
2013-02-19 18:50:00,57.0,55.8,30.00,SW,235,0.0,0.0,96,0.00,,,0.23,0.00,VWS V14.01,2013-02-19 23:50:00,
2013-02-19 18:55:00,57.0,55.8,30.00,SSW,194,2.2,2.2,96,0.00,,,0.23,0.00,VWS V14.01,2013-02-19 23:55:00,
2013-02-19 19:00:00,56.8,55.7,30.00,WSW,239,2.2,3.3,96,0.00,,,0.23,0.00,VWS V14.01,2013-02-20 00:00:00,
2013-02-19 19:05:00,56.8,55.6,30.01,WNW,296,0.0,0.0,96,0.00,,,0.23,0.00,VWS V14.01,2013-02-20 00:05:00,
2013-02-19 19:10:00,56.8,55.6,30.00,West,270,2.2,2.2,96,0.00,,,0.23,0.00,VWS V14.01,2013-02-20 00:10:00,
2013-02-19 19:15:00,56.7,55.5,30.01,West,274,0.0,2.2,96,0.00,,,0.23,0.00,VWS V14.01,2013-02-20 00:15:00,
2013-02-19 19:20:00,56.5,55.4,30.01,WSW,247,0.0,0.0,96,0.00,,,0.23,0.00,VWS V14.01,2013-02-20 00:20:00,
2013-02-19 19:25:00,56.5,55.3,30.01,NW,305,1.1,1.1,96,0.00,,,0.23,0.00,VWS V14.01,2013-02-20 00:25:00,
2013-02-19 19:30:00,56.2,55.1,30.01,West,271,0.0,3.3,96,0.00,,,0.23,0.00,VWS V14.01,2013-02-20 00:30:00,
2013-02-19 19:35:00,56.0,54.9,30.01,NNW,337,0.0,1.1,96,0.00,,,0.23,0.00,VWS V14.01,2013-02-20 00:35:00,
2013-02-19 19:40:00,55.8,54.7,30.01,SW,214,0.0,0.0,96,0.00,,,0.23,0.00,VWS V14.01,2013-02-20 00:40:00,
2013-02-19 19:45:00,55.8,54.6,30.01,SW,214,0.0,0.0,96,0.00,,,0.23,0.00,VWS V14.01,2013-02-20 00:45:00,
2013-02-19 19:50:00,55.5,54.4,30.01,NW,320,0.0,0.0,96,0.00,,,0.23,0.00,VWS V14.01,2013-02-20 00:50:00,
2013-02-19 19:55:00,55.3,54.2,30.01,NW,320,0.0,0.0,96,0.00,,,0.23,0.00,VWS V14.01,2013-02-20 00:55:00,
2013-02-19 20:00:00,55.3,54.2,30.01,WNW,289,0.0,0.0,96,0.00,,,0.23,0.00,VWS V14.01,2013-02-20 01:00:00,
2013-02-19 20:05:00,55.3,54.2,30.01,WSW,244,0.0,1.1,96,0.00,,,0.23,0.00,VWS V14.01,2013-02-20 01:05:00,
2013-02-19 20:10:00,55.2,54.0,30.01,WSW,254,0.0,0.0,96,0.00,,,0.23,0.00,VWS V14.01,2013-02-20 01:10:00,
2013-02-19 20:15:00,54.8,53.7,30.02,South,189,2.2,2.2,96,0.00,,,0.23,0.00,VWS V14.01,2013-02-20 01:15:00,
2013-02-19 20:20:00,54.8,53.6,30.02,SW,216,1.1,1.1,96,0.00,,,0.23,0.00,VWS V14.01,2013-02-20 01:20:00,
2013-02-19 20:25:00,54.5,53.2,30.02,SW,228,0.0,0.0,95,0.00,,,0.23,0.00,VWS V14.01,2013-02-20 01:25:00,
2013-02-19 20:30:00,54.2,53.1,30.02,SW,233,0.0,0.0,96,0.00,,,0.23,0.00,VWS V14.01,2013-02-20 01:30:00,
2013-02-19 20:35:00,53.8,52.5,30.02,SW,232,1.1,1.1,95,0.00,,,0.23,0.00,VWS V14.01,2013-02-20 01:35:00,
2013-02-19 20:40:00,53.7,52.5,30.02,SW,232,0.0,0.0,96,0.00,,,0.23,0.00,VWS V14.01,2013-02-20 01:40:00,
2013-02-19 20:45:00,53.5,52.4,30.02,SW,223,0.0,0.0,96,0.00,,,0.23,0.00,VWS V14.01,2013-02-20 01:45:00,
2013-02-19 20:50:00,52.8,51.5,30.02,SSW,202,0.0,0.0,95,0.00,,,0.23,0.00,VWS V14.01,2013-02-20 01:50:00,
2013-02-19 20:55:00,52.5,51.3,30.02,SW,218,1.1,1.1,96,0.00,,,0.23,0.00,VWS V14.01,2013-02-20 01:55:00,
2013-02-19 21:00:00,52.8,51.6,30.02,SW,218,0.0,0.0,96,0.00,,,0.23,0.00,VWS V14.01,2013-02-20 02:00:00,
2013-02-19 21:05:00,51.8,50.8,30.02,SW,218,0.0,0.0,96,0.00,,,0.23,0.00,VWS V14.01,2013-02-20 02:05:00,
2013-02-19 21:10:00,51.2,50.2,30.02,SW,218,0.0,0.0,96,0.00,,,0.23,0.00,VWS V14.01,2013-02-20 02:10:00,
2013-02-19 21:15:00,50.8,49.8,30.02,West,279,0.0,0.0,96,0.00,,,0.23,0.00,VWS V14.01,2013-02-20 02:15:00,
2013-02-19 21:20:00,50.8,49.7,30.02,West,279,0.0,0.0,96,0.00,,,0.23,0.00,VWS V14.01,2013-02-20 02:20:00,
2013-02-19 21:25:00,50.3,49.3,30.02,West,279,0.0,0.0,96,0.00,,,0.23,0.00,VWS V14.01,2013-02-20 02:25:00,
2013-02-19 21:30:00,50.5,49.6,30.02,West,279,0.0,0.0,97,0.00,,,0.23,0.00,VWS V14.01,2013-02-20 02:30:00,
2013-02-19 21:35:00,50.0,49.2,30.02,West,279,0.0,0.0,97,0.00,,,0.23,0.00,VWS V14.01,2013-02-20 02:35:00,
2013-02-19 21:40:00,50.2,49.4,30.02,West,279,0.0,0.0,97,0.00,,,0.23,0.00,VWS V14.01,2013-02-20 02:40:00,
2013-02-19 21:45:00,50.5,49.7,30.02,SW,218,1.1,1.1,97,0.00,,,0.23,0.00,VWS V14.01,2013-02-20 02:45:00,
2013-02-19 21:50:00,50.5,49.6,30.02,SW,217,0.0,0.0,97,0.00,,,0.23,0.00,VWS V14.01,2013-02-20 02:50:00,
2013-02-19 21:55:00,50.0,49.1,30.03,SW,217,0.0,0.0,97,0.00,,,0.23,0.00,VWS V14.01,2013-02-20 02:55:00,
2013-02-19 22:00:00,50.0,49.1,30.03,SW,217,0.0,0.0,97,0.00,,,0.23,0.00,VWS V14.01,2013-02-20 03:00:00,
2013-02-19 22:05:00,50.5,49.6,30.03,SW,217,0.0,0.0,97,0.00,,,0.23,0.00,VWS V14.01,2013-02-20 03:05:00,
2013-02-19 22:10:00,50.3,49.5,30.03,SW,227,0.0,0.0,97,0.00,,,0.23,0.00,VWS V14.01,2013-02-20 03:10:00,
2013-02-19 22:15:00,50.7,49.8,30.03,SW,227,0.0,0.0,97,0.00,,,0.23,0.00,VWS V14.01,2013-02-20 03:15:00,
2013-02-19 22:20:00,50.3,49.5,30.03,SW,227,0.0,0.0,97,0.00,,,0.23,0.00,VWS V14.01,2013-02-20 03:20:00,
2013-02-19 22:25:00,50.5,49.6,30.03,SW,229,0.0,0.0,97,0.00,,,0.23,0.00,VWS V14.01,2013-02-20 03:25:00,
2013-02-19 22:30:00,50.3,49.5,30.03,SW,229,0.0,0.0,97,0.00,,,0.23,0.00,VWS V14.01,2013-02-20 03:30:00,
2013-02-19 22:35:00,50.0,49.2,30.03,SW,229,0.0,0.0,97,0.00,,,0.23,0.00,VWS V14.01,2013-02-20 03:35:00,
2013-02-19 22:40:00,50.2,49.3,30.03,WSW,239,0.0,0.0,97,0.00,,,0.23,0.00,VWS V14.01,2013-02-20 03:40:00,
2013-02-19 22:45:00,50.2,49.4,30.03,SSW,207,0.0,0.0,97,0.00,,,0.23,0.00,VWS V14.01,2013-02-20 03:45:00,
2013-02-19 22:50:00,50.0,49.1,30.03,SW,225,0.0,0.0,97,0.00,,,0.23,0.00,VWS V14.01,2013-02-20 03:50:00,
2013-02-19 22:55:00,50.0,49.1,30.03,SW,227,0.0,0.0,97,0.00,,,0.23,0.00,VWS V14.01,2013-02-20 03:55:00,
2013-02-19 23:00:00,49.3,48.5,30.03,SW,236,0.0,0.0,97,0.00,,,0.23,0.00,VWS V14.01,2013-02-20 04:00:00,
2013-02-19 23:05:00,49.0,48.1,30.03,SW,236,0.0,0.0,97,0.00,,,0.23,0.00,VWS V14.01,2013-02-20 04:05:00,
2013-02-19 23:10:00,48.8,48.0,30.04,ESE,117,0.0,0.0,97,0.00,,,0.23,0.00,VWS V14.01,2013-02-20 04:10:00,
2013-02-19 23:15:00,49.0,48.2,30.04,WNW,289,0.0,0.0,97,0.00,,,0.23,0.00,VWS V14.01,2013-02-20 04:15:00,
2013-02-19 23:20:00,49.3,48.5,30.04,West,272,0.0,0.0,97,0.00,,,0.23,0.00,VWS V14.01,2013-02-20 04:20:00,
2013-02-19 23:25:00,49.8,49.0,30.04,SW,229,1.1,2.2,97,0.00,,,0.23,0.00,VWS V14.01,2013-02-20 04:25:00,
2013-02-19 23:30:00,50.2,49.6,30.04,WNW,282,1.1,1.1,98,0.00,,,0.23,0.00,VWS V14.01,2013-02-20 04:30:00,
2013-02-19 23:35:00,50.5,49.6,30.05,SSW,212,2.2,3.3,97,0.00,,,0.23,0.00,VWS V14.01,2013-02-20 04:35:00,
2013-02-19 23:40:00,50.5,50.0,30.05,WSW,251,1.1,3.3,98,0.00,,,0.23,0.00,VWS V14.01,2013-02-20 04:40:00,
2013-02-19 23:45:00,50.5,49.6,30.04,NW,310,0.0,0.0,97,0.00,,,0.23,0.00,VWS V14.01,2013-02-20 04:45:00,
2013-02-19 23:50:00,50.2,49.6,30.04,West,281,1.1,1.1,98,0.00,,,0.23,0.00,VWS V14.01,2013-02-20 04:50:00,
2013-02-19 23:55:00,49.8,48.9,30.04,West,270,0.0,0.0,97,0.00,,,0.23,0.00,VWS V14.01,2013-02-20 04:55:00,